sensor_id;sensor_type;location;lat;lon;timestamp;pressure;altitude;pressure_sealevel;temperature;humidity
3780;BME280;1905;52.482;9.802;2023-05-09T00:01:59;101527.56;;;14.28;58.37
3780;BME280;1905;52.482;9.802;2023-05-09T00:04:26;101521.72;;;14.20;58.67
3780;BME280;1905;52.482;9.802;2023-05-09T00:06:54;101523.50;;;14.19;58.45
3780;BME280;1905;52.482;9.802;2023-05-09T00:09:22;101518.19;;;14.19;58.75
3780;BME280;1905;52.482;9.802;2023-05-09T00:11:50;101517.63;;;14.13;58.54
3780;BME280;1905;52.482;9.802;2023-05-09T00:14:18;101518.63;;;14.10;58.53
3780;BME280;1905;52.482;9.802;2023-05-09T00:16:45;101521.34;;;14.09;59.04
3780;BME280;1905;52.482;9.802;2023-05-09T00:19:13;101518.03;;;14.04;58.94
3780;BME280;1905;52.482;9.802;2023-05-09T00:21:41;101518.25;;;13.99;58.93
3780;BME280;1905;52.482;9.802;2023-05-09T00:24:08;101509.69;;;13.93;59.05
3780;BME280;1905;52.482;9.802;2023-05-09T00:26:36;101516.84;;;13.91;59.07
3780;BME280;1905;52.482;9.802;2023-05-09T00:29:05;101516.97;;;13.88;58.85
3780;BME280;1905;52.482;9.802;2023-05-09T00:31:32;101519.69;;;13.86;58.92
3780;BME280;1905;52.482;9.802;2023-05-09T00:34:00;101505.72;;;13.83;59.29
3780;BME280;1905;52.482;9.802;2023-05-09T00:36:27;101501.44;;;13.79;59.05
3780;BME280;1905;52.482;9.802;2023-05-09T00:38:56;101501.69;;;13.72;59.18
3780;BME280;1905;52.482;9.802;2023-05-09T00:41:23;101496.56;;;13.69;59.22
3780;BME280;1905;52.482;9.802;2023-05-09T00:43:51;101495.88;;;13.64;59.32
3780;BME280;1905;52.482;9.802;2023-05-09T00:46:20;101495.88;;;13.64;59.30
3780;BME280;1905;52.482;9.802;2023-05-09T00:48:47;101494.28;;;13.60;59.12
3780;BME280;1905;52.482;9.802;2023-05-09T00:51:15;101490.03;;;13.56;59.41
3780;BME280;1905;52.482;9.802;2023-05-09T00:53:43;101484.84;;;13.53;59.36
3780;BME280;1905;52.482;9.802;2023-05-09T00:56:11;101486.84;;;13.48;59.58
3780;BME280;1905;52.482;9.802;2023-05-09T00:58:38;101490.56;;;13.44;59.53
3780;BME280;1905;52.482;9.802;2023-05-09T01:01:06;101485.25;;;13.44;59.63
3780;BME280;1905;52.482;9.802;2023-05-09T01:03:38;101485.50;;;13.38;59.95
3780;BME280;1905;52.482;9.802;2023-05-09T01:06:12;101477.81;;;13.32;59.91
3780;BME280;1905;52.482;9.802;2023-05-09T01:08:45;101473.44;;;13.31;59.81
3780;BME280;1905;52.482;9.802;2023-05-09T01:11:22;101472.69;;;13.28;59.92
3780;BME280;1905;52.482;9.802;2023-05-09T01:14:04;101467.59;;;13.23;59.89
3780;BME280;1905;52.482;9.802;2023-05-09T01:16:38;101463.34;;;13.19;59.93
3780;BME280;1905;52.482;9.802;2023-05-09T01:19:26;101462.59;;;13.16;60.12
3780;BME280;1905;52.482;9.802;2023-05-09T01:21:57;101456.63;;;13.10;60.26
3780;BME280;1905;52.482;9.802;2023-05-09T01:25:00;101442.66;;;13.07;59.70
3780;BME280;1905;52.482;9.802;2023-05-09T01:27:38;101443.72;;;13.01;60.37
3780;BME280;1905;52.482;9.802;2023-05-09T01:30:12;101443.84;;;12.98;60.17
3780;BME280;1905;52.482;9.802;2023-05-09T01:32:43;101440.53;;;12.93;60.13
3780;BME280;1905;52.482;9.802;2023-05-09T01:35:13;101435.41;;;12.89;60.24
3780;BME280;1905;52.482;9.802;2023-05-09T01:37:43;101439.00;;;12.88;60.42
3780;BME280;1905;52.482;9.802;2023-05-09T01:40:16;101438.16;;;12.86;60.22
3780;BME280;1905;52.482;9.802;2023-05-09T01:42:49;101443.75;;;12.80;60.56
3780;BME280;1905;52.482;9.802;2023-05-09T01:45:19;101440.94;;;12.83;60.38
3780;BME280;1905;52.482;9.802;2023-05-09T01:47:48;101440.28;;;12.78;60.47
3780;BME280;1905;52.482;9.802;2023-05-09T01:50:17;101433.38;;;12.74;60.43
3780;BME280;1905;52.482;9.802;2023-05-09T01:52:48;101431.72;;;12.71;60.67
3780;BME280;1905;52.482;9.802;2023-05-09T01:55:25;101422.91;;;12.71;60.68
3780;BME280;1905;52.482;9.802;2023-05-09T01:57:53;101424.00;;;12.65;60.62
3780;BME280;1905;52.482;9.802;2023-05-09T02:00:23;101433.88;;;12.62;60.47
3780;BME280;1905;52.482;9.802;2023-05-09T02:02:52;101425.13;;;12.60;60.71
3780;BME280;1905;52.482;9.802;2023-05-09T02:05:20;101427.88;;;12.57;60.95
3780;BME280;1905;52.482;9.802;2023-05-09T02:07:49;101423.50;;;12.55;60.90
3780;BME280;1905;52.482;9.802;2023-05-09T02:10:18;101428.94;;;12.52;60.89
3780;BME280;1905;52.482;9.802;2023-05-09T02:12:46;101430.88;;;12.47;61.19
3780;BME280;1905;52.482;9.802;2023-05-09T02:15:14;101415.16;;;12.44;60.52
3780;BME280;1905;52.482;9.802;2023-05-09T02:17:43;101410.75;;;12.43;61.08
3780;BME280;1905;52.482;9.802;2023-05-09T02:20:13;101409.97;;;12.41;60.85
3780;BME280;1905;52.482;9.802;2023-05-09T02:22:41;101416.28;;;12.37;60.80
3780;BME280;1905;52.482;9.802;2023-05-09T02:25:11;101417.34;;;12.33;60.97
3780;BME280;1905;52.482;9.802;2023-05-09T02:27:43;101419.16;;;12.31;61.07
3780;BME280;1905;52.482;9.802;2023-05-09T02:30:13;101414.81;;;12.30;61.23
3780;BME280;1905;52.482;9.802;2023-05-09T02:32:44;101410.66;;;12.23;61.02
3780;BME280;1905;52.482;9.802;2023-05-09T02:35:14;101409.81;;;12.23;61.29
3780;BME280;1905;52.482;9.802;2023-05-09T02:37:43;101406.34;;;12.21;60.98
3780;BME280;1905;52.482;9.802;2023-05-09T02:40:12;101409.06;;;12.19;61.58
3780;BME280;1905;52.482;9.802;2023-05-09T02:42:43;101411.84;;;12.16;61.70
3780;BME280;1905;52.482;9.802;2023-05-09T02:45:10;101405.84;;;12.11;61.48
3780;BME280;1905;52.482;9.802;2023-05-09T02:47:38;101410.47;;;12.06;61.61
3780;BME280;1905;52.482;9.802;2023-05-09T02:50:08;101413.13;;;12.06;61.75
3780;BME280;1905;52.482;9.802;2023-05-09T02:52:37;101411.38;;;12.05;60.98
3780;BME280;1905;52.482;9.802;2023-05-09T02:55:05;101413.22;;;12.03;61.63
3780;BME280;1905;52.482;9.802;2023-05-09T02:57:36;101410.88;;;11.96;61.59
3780;BME280;1905;52.482;9.802;2023-05-09T03:00:05;101408.28;;;11.94;61.94
3780;BME280;1905;52.482;9.802;2023-05-09T03:02:35;101402.06;;;11.95;61.70
3780;BME280;1905;52.482;9.802;2023-05-09T03:05:05;101402.97;;;11.94;61.44
3780;BME280;1905;52.482;9.802;2023-05-09T03:07:35;101385.50;;;11.90;61.56
3780;BME280;1905;52.482;9.802;2023-05-09T03:10:04;101393.59;;;11.85;61.76
3780;BME280;1905;52.482;9.802;2023-05-09T03:12:32;101395.44;;;11.83;62.06
3780;BME280;1905;52.482;9.802;2023-05-09T03:15:00;101386.81;;;11.78;62.36
3780;BME280;1905;52.482;9.802;2023-05-09T03:17:28;101392.97;;;11.79;62.02
3780;BME280;1905;52.482;9.802;2023-05-09T03:19:56;101388.56;;;11.79;61.94
3780;BME280;1905;52.482;9.802;2023-05-09T03:22:24;101396.66;;;11.75;62.23
3780;BME280;1905;52.482;9.802;2023-05-09T03:24:58;101378.19;;;11.73;62.35
3780;BME280;1905;52.482;9.802;2023-05-09T03:27:26;101382.72;;;11.70;61.85
3780;BME280;1905;52.482;9.802;2023-05-09T03:29:53;101379.25;;;11.68;62.37
3780;BME280;1905;52.482;9.802;2023-05-09T03:32:21;101380.34;;;11.62;62.27
3780;BME280;1905;52.482;9.802;2023-05-09T03:34:49;101380.25;;;11.64;61.80
3780;BME280;1905;52.482;9.802;2023-05-09T03:37:16;101377.63;;;11.64;62.57
3780;BME280;1905;52.482;9.802;2023-05-09T03:39:44;101375.16;;;11.59;61.91
3780;BME280;1905;52.482;9.802;2023-05-09T03:42:13;101376.13;;;11.57;62.36
3780;BME280;1905;52.482;9.802;2023-05-09T03:44:44;101382.31;;;11.56;62.88
3780;BME280;1905;52.482;9.802;2023-05-09T03:47:11;101375.25;;;11.56;62.53
3780;BME280;1905;52.482;9.802;2023-05-09T03:49:39;101374.38;;;11.56;63.13
3780;BME280;1905;52.482;9.802;2023-05-09T03:52:08;101372.91;;;11.49;62.72
3780;BME280;1905;52.482;9.802;2023-05-09T03:54:36;101371.16;;;11.48;62.23
3780;BME280;1905;52.482;9.802;2023-05-09T03:57:04;101378.19;;;11.49;62.15
3780;BME280;1905;52.482;9.802;2023-05-09T03:59:33;101369.47;;;11.47;62.88
3780;BME280;1905;52.482;9.802;2023-05-09T04:02:02;101371.16;;;11.48;62.34
3780;BME280;1905;52.482;9.802;2023-05-09T04:04:30;101370.28;;;11.47;62.56
3780;BME280;1905;52.482;9.802;2023-05-09T04:06:58;101366.81;;;11.47;62.40
3780;BME280;1905;52.482;9.802;2023-05-09T04:09:26;101360.78;;;11.42;63.15
3780;BME280;1905;52.482;9.802;2023-05-09T04:11:54;101358.97;;;11.44;62.39
3780;BME280;1905;52.482;9.802;2023-05-09T04:14:21;101353.00;;;11.39;62.93
3780;BME280;1905;52.482;9.802;2023-05-09T04:16:51;101354.78;;;11.38;62.84
3780;BME280;1905;52.482;9.802;2023-05-09T04:19:19;101346.00;;;11.36;62.67
3780;BME280;1905;52.482;9.802;2023-05-09T04:21:47;101349.63;;;11.33;62.73
3780;BME280;1905;52.482;9.802;2023-05-09T04:24:15;101341.69;;;11.33;63.06
3780;BME280;1905;52.482;9.802;2023-05-09T04:26:45;101343.44;;;11.34;62.85
3780;BME280;1905;52.482;9.802;2023-05-09T04:29:16;101345.19;;;11.35;62.92
3780;BME280;1905;52.482;9.802;2023-05-09T04:31:49;101348.72;;;11.34;62.84
3780;BME280;1905;52.482;9.802;2023-05-09T04:34:19;101347.97;;;11.31;62.98
3780;BME280;1905;52.482;9.802;2023-05-09T04:36:47;101351.44;;;11.33;62.42
3780;BME280;1905;52.482;9.802;2023-05-09T04:39:22;101365.78;;;11.26;63.33
3780;BME280;1905;52.482;9.802;2023-05-09T04:42:01;101352.53;;;11.27;62.95
3780;BME280;1905;52.482;9.802;2023-05-09T04:44:30;101353.22;;;11.32;63.23
3780;BME280;1905;52.482;9.802;2023-05-09T04:46:58;101350.69;;;11.29;62.88
3780;BME280;1905;52.482;9.802;2023-05-09T04:49:28;101341.94;;;11.27;63.02
3780;BME280;1905;52.482;9.802;2023-05-09T04:51:55;101348.94;;;11.28;62.84
3780;BME280;1905;52.482;9.802;2023-05-09T04:54:24;101352.53;;;11.27;63.25
3780;BME280;1905;52.482;9.802;2023-05-09T04:56:53;101348.13;;;11.26;63.24
3780;BME280;1905;52.482;9.802;2023-05-09T04:59:33;101344.59;;;11.27;63.29
3780;BME280;1905;52.482;9.802;2023-05-09T05:02:01;101343.88;;;11.22;63.29
3780;BME280;1905;52.482;9.802;2023-05-09T05:04:31;101345.56;;;11.25;62.89
3780;BME280;1905;52.482;9.802;2023-05-09T05:06:59;101339.31;;;11.27;63.28
3780;BME280;1905;52.482;9.802;2023-05-09T05:09:27;101332.38;;;11.23;62.69
3780;BME280;1905;52.482;9.802;2023-05-09T05:11:55;101333.16;;;11.27;63.63
3780;BME280;1905;52.482;9.802;2023-05-09T05:14:29;101329.63;;;11.26;62.95
3780;BME280;1905;52.482;9.802;2023-05-09T05:16:58;101324.34;;;11.26;62.91
3780;BME280;1905;52.482;9.802;2023-05-09T05:19:25;101321.59;;;11.29;62.94
3780;BME280;1905;52.482;9.802;2023-05-09T05:21:55;101325.09;;;11.30;63.25
3780;BME280;1905;52.482;9.802;2023-05-09T05:24:24;101320.53;;;11.33;63.08
3780;BME280;1905;52.482;9.802;2023-05-09T05:26:53;101327.69;;;11.31;63.04
3780;BME280;1905;52.482;9.802;2023-05-09T05:29:21;101318.84;;;11.32;63.01
3780;BME280;1905;52.482;9.802;2023-05-09T05:31:48;101318.72;;;11.35;63.29
3780;BME280;1905;52.482;9.802;2023-05-09T05:34:16;101324.03;;;11.35;63.21
3780;BME280;1905;52.482;9.802;2023-05-09T05:36:44;101322.19;;;11.38;63.21
3780;BME280;1905;52.482;9.802;2023-05-09T05:39:14;101330.91;;;11.40;63.05
3780;BME280;1905;52.482;9.802;2023-05-09T05:41:41;101319.41;;;11.41;63.48
3780;BME280;1905;52.482;9.802;2023-05-09T05:44:09;101324.63;;;11.42;63.76
3780;BME280;1905;52.482;9.802;2023-05-09T05:46:37;101317.38;;;11.47;63.29
3780;BME280;1905;52.482;9.802;2023-05-09T05:49:05;101314.81;;;11.46;63.35
3780;BME280;1905;52.482;9.802;2023-05-09T05:51:35;101317.38;;;11.47;62.74
3780;BME280;1905;52.482;9.802;2023-05-09T05:54:05;101312.84;;;11.51;63.14
3780;BME280;1905;52.482;9.802;2023-05-09T05:56:35;101311.00;;;11.53;63.79
3780;BME280;1905;52.482;9.802;2023-05-09T05:59:03;101311.94;;;11.52;62.89
3780;BME280;1905;52.482;9.802;2023-05-09T06:01:31;101310.03;;;11.55;63.90
3780;BME280;1905;52.482;9.802;2023-05-09T06:03:59;101313.31;;;11.62;63.69
3780;BME280;1905;52.482;9.802;2023-05-09T06:06:29;101296.66;;;11.60;63.84
3780;BME280;1905;52.482;9.802;2023-05-09T06:08:57;101291.25;;;11.63;64.62
3780;BME280;1905;52.482;9.802;2023-05-09T06:11:25;101294.41;;;11.72;65.46
3780;BME280;1905;52.482;9.802;2023-05-09T06:13:54;101296.03;;;11.76;65.83
3780;BME280;1905;52.482;9.802;2023-05-09T06:16:22;101290.56;;;11.81;65.24
3780;BME280;1905;52.482;9.802;2023-05-09T06:18:49;101291.31;;;11.84;65.72
3780;BME280;1905;52.482;9.802;2023-05-09T06:21:21;101286.63;;;11.91;66.27
3780;BME280;1905;52.482;9.802;2023-05-09T06:23:48;101281.09;;;11.97;65.79
3780;BME280;1905;52.482;9.802;2023-05-09T06:26:36;101279.91;;;12.04;66.90
3780;BME280;1905;52.482;9.802;2023-05-09T06:29:05;101273.59;;;12.08;65.48
3780;BME280;1905;52.482;9.802;2023-05-09T06:31:33;101276.78;;;12.16;65.99
3780;BME280;1905;52.482;9.802;2023-05-09T06:34:03;101279.25;;;12.21;65.69
3780;BME280;1905;52.482;9.802;2023-05-09T06:36:31;101279.88;;;12.27;66.54
3780;BME280;1905;52.482;9.802;2023-05-09T06:38:59;101281.31;;;12.34;66.26
3780;BME280;1905;52.482;9.802;2023-05-09T06:41:26;101274.88;;;12.41;64.95
3780;BME280;1905;52.482;9.802;2023-05-09T06:43:54;101280.69;;;12.49;66.75
3780;BME280;1905;52.482;9.802;2023-05-09T06:46:23;101274.34;;;12.53;66.52
3780;BME280;1905;52.482;9.802;2023-05-09T06:48:50;101265.25;;;12.59;65.63
3780;BME280;1905;52.482;9.802;2023-05-09T06:51:18;101257.84;;;12.67;66.37
3780;BME280;1905;52.482;9.802;2023-05-09T06:53:46;101253.03;;;12.77;66.01
3780;BME280;1905;52.482;9.802;2023-05-09T06:56:13;101249.16;;;12.84;65.86
3780;BME280;1905;52.482;9.802;2023-05-09T06:58:50;101246.91;;;12.95;66.72
3780;BME280;1905;52.482;9.802;2023-05-09T07:01:18;101241.34;;;13.01;66.19
3780;BME280;1905;52.482;9.802;2023-05-09T07:03:46;101237.38;;;13.11;66.37
3780;BME280;1905;52.482;9.802;2023-05-09T07:06:14;101230.66;;;13.23;67.37
3780;BME280;1905;52.482;9.802;2023-05-09T07:08:42;101230.38;;;13.29;65.41
3780;BME280;1905;52.482;9.802;2023-05-09T07:11:09;101226.38;;;13.39;65.59
3780;BME280;1905;52.482;9.802;2023-05-09T07:13:37;101223.13;;;13.51;65.36
3780;BME280;1905;52.482;9.802;2023-05-09T07:16:05;101222.94;;;13.55;65.62
3780;BME280;1905;52.482;9.802;2023-05-09T07:18:32;101218.88;;;13.65;65.54
3780;BME280;1905;52.482;9.802;2023-05-09T07:21:01;101213.16;;;13.75;65.30
3780;BME280;1905;52.482;9.802;2023-05-09T07:23:29;101209.09;;;13.85;64.93
3780;BME280;1905;52.482;9.802;2023-05-09T07:25:57;101206.22;;;13.89;65.68
3780;BME280;1905;52.482;9.802;2023-05-09T07:28:24;101199.38;;;14.02;66.16
3780;BME280;1905;52.482;9.802;2023-05-09T07:30:54;101193.69;;;14.10;65.52
3780;BME280;1905;52.482;9.802;2023-05-09T07:33:21;101199.19;;;14.24;65.49
3780;BME280;1905;52.482;9.802;2023-05-09T07:35:49;101191.53;;;14.35;65.18
3780;BME280;1905;52.482;9.802;2023-05-09T07:38:19;101189.53;;;14.40;63.57
3780;BME280;1905;52.482;9.802;2023-05-09T07:40:50;101190.00;;;14.48;64.30
3780;BME280;1905;52.482;9.802;2023-05-09T07:43:18;101178.81;;;14.59;64.68
3780;BME280;1905;52.482;9.802;2023-05-09T07:45:45;101189.78;;;14.68;63.78
3780;BME280;1905;52.482;9.802;2023-05-09T07:48:13;101176.03;;;14.77;64.32
3780;BME280;1905;52.482;9.802;2023-05-09T07:50:41;101180.69;;;14.89;63.18
3780;BME280;1905;52.482;9.802;2023-05-09T07:53:08;101179.31;;;14.98;63.28
3780;BME280;1905;52.482;9.802;2023-05-09T07:55:37;101161.94;;;15.08;62.99
3780;BME280;1905;52.482;9.802;2023-05-09T07:58:05;101156.03;;;15.19;62.42
3780;BME280;1905;52.482;9.802;2023-05-09T08:00:32;101150.19;;;15.28;62.04
3780;BME280;1905;52.482;9.802;2023-05-09T08:03:00;101150.44;;;15.39;61.73
3780;BME280;1905;52.482;9.802;2023-05-09T08:05:28;101149.81;;;15.51;61.75
3780;BME280;1905;52.482;9.802;2023-05-09T08:07:56;101145.50;;;15.64;60.91
3780;BME280;1905;52.482;9.802;2023-05-09T08:10:23;101147.25;;;15.79;61.30
3780;BME280;1905;52.482;9.802;2023-05-09T08:12:53;101139.50;;;15.90;61.24
3780;BME280;1905;52.482;9.802;2023-05-09T08:15:21;101134.16;;;16.06;61.04
3780;BME280;1905;52.482;9.802;2023-05-09T08:17:49;101135.81;;;16.23;60.08
3780;BME280;1905;52.482;9.802;2023-05-09T08:20:17;101140.06;;;16.41;59.71
3780;BME280;1905;52.482;9.802;2023-05-09T08:22:50;101129.34;;;16.56;59.64
3780;BME280;1905;52.482;9.802;2023-05-09T08:25:18;101122.00;;;16.74;59.95
3780;BME280;1905;52.482;9.802;2023-05-09T08:27:46;101126.19;;;16.92;59.01
3780;BME280;1905;52.482;9.802;2023-05-09T08:30:15;101112.63;;;17.09;59.92
3780;BME280;1905;52.482;9.802;2023-05-09T08:32:42;101124.47;;;17.19;58.03
3780;BME280;1905;52.482;9.802;2023-05-09T08:35:10;101117.72;;;17.41;58.45
3780;BME280;1905;52.482;9.802;2023-05-09T08:37:38;101104.38;;;17.55;57.69
3780;BME280;1905;52.482;9.802;2023-05-09T08:40:07;101093.31;;;17.73;57.38
3780;BME280;1905;52.482;9.802;2023-05-09T08:42:36;101094.47;;;17.96;57.60
3780;BME280;1905;52.482;9.802;2023-05-09T08:45:08;101080.91;;;18.12;58.35
3780;BME280;1905;52.482;9.802;2023-05-09T08:47:37;101081.22;;;18.32;59.35
3780;BME280;1905;52.482;9.802;2023-05-09T08:50:07;101078.00;;;18.40;55.88
3780;BME280;1905;52.482;9.802;2023-05-09T08:52:34;101077.84;;;18.56;55.47
3780;BME280;1905;52.482;9.802;2023-05-09T08:55:02;101079.53;;;18.82;55.49
3780;BME280;1905;52.482;9.802;2023-05-09T08:57:32;101073.69;;;19.00;56.16
3780;BME280;1905;52.482;9.802;2023-05-09T09:00:00;101078.78;;;19.16;56.70
3780;BME280;1905;52.482;9.802;2023-05-09T09:02:31;101072.69;;;19.14;53.25
3780;BME280;1905;52.482;9.802;2023-05-09T09:05:00;101080.88;;;19.36;54.10
3780;BME280;1905;52.482;9.802;2023-05-09T09:07:29;101072.72;;;19.50;53.65
3780;BME280;1905;52.482;9.802;2023-05-09T09:10:03;101065.09;;;19.68;56.18
3780;BME280;1905;52.482;9.802;2023-05-09T09:12:31;101062.47;;;19.79;53.26
3780;BME280;1905;52.482;9.802;2023-05-09T09:15:03;101059.94;;;19.89;53.29
3780;BME280;1905;52.482;9.802;2023-05-09T09:17:32;101056.31;;;20.01;53.21
3780;BME280;1905;52.482;9.802;2023-05-09T09:20:04;101050.72;;;20.04;52.20
3780;BME280;1905;52.482;9.802;2023-05-09T09:22:36;101057.84;;;20.16;51.36
3780;BME280;1905;52.482;9.802;2023-05-09T09:25:08;101058.16;;;20.11;48.57
3780;BME280;1905;52.482;9.802;2023-05-09T09:27:35;101054.66;;;20.22;49.73
3780;BME280;1905;52.482;9.802;2023-05-09T09:30:07;101050.38;;;20.19;47.77
3780;BME280;1905;52.482;9.802;2023-05-09T09:32:34;101051.38;;;20.18;48.26
3780;BME280;1905;52.482;9.802;2023-05-09T09:35:05;101042.53;;;20.29;49.08
3780;BME280;1905;52.482;9.802;2023-05-09T09:37:33;101041.53;;;20.30;48.43
3780;BME280;1905;52.482;9.802;2023-05-09T09:40:02;101045.16;;;20.18;48.15
3780;BME280;1905;52.482;9.802;2023-05-09T09:42:40;101034.22;;;20.32;50.05
3780;BME280;1905;52.482;9.802;2023-05-09T09:45:09;101020.34;;;20.38;48.76
3780;BME280;1905;52.482;9.802;2023-05-09T09:47:38;101020.22;;;20.40;48.93
3780;BME280;1905;52.482;9.802;2023-05-09T09:50:12;101017.13;;;20.33;48.71
3780;BME280;1905;52.482;9.802;2023-05-09T09:52:48;101015.94;;;20.37;49.59
3780;BME280;1905;52.482;9.802;2023-05-09T09:55:17;101012.28;;;20.38;50.16
3780;BME280;1905;52.482;9.802;2023-05-09T09:57:45;101013.50;;;20.34;49.77
3780;BME280;1905;52.482;9.802;2023-05-09T10:00:15;101002.63;;;20.36;49.51
3780;BME280;1905;52.482;9.802;2023-05-09T10:02:47;100992.28;;;20.42;50.20
3780;BME280;1905;52.482;9.802;2023-05-09T10:05:21;100991.31;;;20.43;49.79
3780;BME280;1905;52.482;9.802;2023-05-09T10:07:56;100997.66;;;20.42;49.29
3780;BME280;1905;52.482;9.802;2023-05-09T10:10:25;100985.19;;;20.41;48.55
3780;BME280;1905;52.482;9.802;2023-05-09T10:12:55;100976.91;;;20.44;49.46
3780;BME280;1905;52.482;9.802;2023-05-09T10:15:24;100979.81;;;20.41;49.14
3780;BME280;1905;52.482;9.802;2023-05-09T10:17:56;100971.66;;;20.43;49.41
3780;BME280;1905;52.482;9.802;2023-05-09T10:20:25;100970.56;;;20.45;48.79
3780;BME280;1905;52.482;9.802;2023-05-09T10:22:56;100962.38;;;20.47;48.70
3780;BME280;1905;52.482;9.802;2023-05-09T10:25:27;100953.97;;;20.51;49.16
3780;BME280;1905;52.482;9.802;2023-05-09T10:27:59;100950.06;;;20.55;48.88
3780;BME280;1905;52.482;9.802;2023-05-09T10:30:33;100947.38;;;20.55;49.80
3780;BME280;1905;52.482;9.802;2023-05-09T10:33:07;100941.91;;;20.57;48.75
3780;BME280;1905;52.482;9.802;2023-05-09T10:35:41;100937.09;;;20.60;49.00
3780;BME280;1905;52.482;9.802;2023-05-09T10:38:20;100927.84;;;20.64;49.37
3780;BME280;1905;52.482;9.802;2023-05-09T10:40:50;100930.38;;;20.66;49.19
3780;BME280;1905;52.482;9.802;2023-05-09T10:43:19;100915.63;;;20.71;49.26
3780;BME280;1905;52.482;9.802;2023-05-09T10:45:51;100916.09;;;20.76;48.76
3780;BME280;1905;52.482;9.802;2023-05-09T10:48:19;100917.31;;;20.84;48.86
3780;BME280;1905;52.482;9.802;2023-05-09T10:50:49;100913.63;;;20.85;49.58
3780;BME280;1905;52.482;9.802;2023-05-09T10:53:17;100904.19;;;20.90;49.06
3780;BME280;1905;52.482;9.802;2023-05-09T10:55:48;100905.78;;;20.93;49.12
3780;BME280;1905;52.482;9.802;2023-05-09T10:58:22;100901.88;;;20.97;49.48
3780;BME280;1905;52.482;9.802;2023-05-09T11:00:51;100899.03;;;20.98;49.01
3780;BME280;1905;52.482;9.802;2023-05-09T11:03:22;100898.22;;;20.98;49.31
3780;BME280;1905;52.482;9.802;2023-05-09T11:05:53;100878.88;;;21.04;49.11
3780;BME280;1905;52.482;9.802;2023-05-09T11:08:23;100885.81;;;21.06;49.19
3780;BME280;1905;52.482;9.802;2023-05-09T11:10:52;100880.22;;;21.09;48.98
3780;BME280;1905;52.482;9.802;2023-05-09T11:13:21;100870.94;;;21.13;48.39
3780;BME280;1905;52.482;9.802;2023-05-09T11:16:02;100875.66;;;21.21;48.60
3780;BME280;1905;52.482;9.802;2023-05-09T11:18:31;100869.53;;;21.30;49.36
3780;BME280;1905;52.482;9.802;2023-05-09T11:21:06;100869.25;;;21.33;49.31
3780;BME280;1905;52.482;9.802;2023-05-09T11:23:34;100855.56;;;21.36;48.70
3780;BME280;1905;52.482;9.802;2023-05-09T11:26:04;100844.81;;;21.36;49.22
3780;BME280;1905;52.482;9.802;2023-05-09T11:28:34;100845.00;;;21.44;48.62
3780;BME280;1905;52.482;9.802;2023-05-09T11:31:09;100842.78;;;21.49;49.36
3780;BME280;1905;52.482;9.802;2023-05-09T11:33:37;100845.47;;;21.49;48.16
3780;BME280;1905;52.482;9.802;2023-05-09T11:36:17;100844.19;;;21.53;48.73
3780;BME280;1905;52.482;9.802;2023-05-09T11:39:04;100844.38;;;21.61;48.59
3780;BME280;1905;52.482;9.802;2023-05-09T11:41:39;100833.38;;;21.64;49.55
3780;BME280;1905;52.482;9.802;2023-05-09T11:44:14;100842.03;;;21.68;49.25
3780;BME280;1905;52.482;9.802;2023-05-09T11:46:43;100840.38;;;21.76;49.18
3780;BME280;1905;52.482;9.802;2023-05-09T11:49:11;100831.03;;;21.80;48.88
3780;BME280;1905;52.482;9.802;2023-05-09T11:51:42;100825.59;;;21.91;49.55
3780;BME280;1905;52.482;9.802;2023-05-09T11:54:10;100823.59;;;21.93;49.54
3780;BME280;1905;52.482;9.802;2023-05-09T11:56:40;100819.69;;;21.98;48.08
3780;BME280;1905;52.482;9.802;2023-05-09T11:59:08;100821.09;;;22.02;47.82
3780;BME280;1905;52.482;9.802;2023-05-09T12:01:38;100821.13;;;22.11;49.12
3780;BME280;1905;52.482;9.802;2023-05-09T12:04:06;100817.03;;;22.17;49.43
3780;BME280;1905;52.482;9.802;2023-05-09T12:06:34;100813.50;;;22.26;48.68
3780;BME280;1905;52.482;9.802;2023-05-09T12:09:04;100811.56;;;22.28;49.00
3780;BME280;1905;52.482;9.802;2023-05-09T12:11:32;100813.69;;;22.34;48.13
3780;BME280;1905;52.482;9.802;2023-05-09T12:14:00;100808.88;;;22.47;48.99
3780;BME280;1905;52.482;9.802;2023-05-09T12:16:27;100802.66;;;22.56;49.93
3780;BME280;1905;52.482;9.802;2023-05-09T12:18:55;100799.94;;;22.56;48.62
3780;BME280;1905;52.482;9.802;2023-05-09T12:21:23;100789.50;;;22.72;50.28
3780;BME280;1905;52.482;9.802;2023-05-09T12:23:54;100798.56;;;22.81;49.08
3780;BME280;1905;52.482;9.802;2023-05-09T12:26:23;100786.25;;;22.88;50.47
3780;BME280;1905;52.482;9.802;2023-05-09T12:28:51;100790.63;;;22.89;49.91
3780;BME280;1905;52.482;9.802;2023-05-09T12:31:26;100786.09;;;22.99;49.77
3780;BME280;1905;52.482;9.802;2023-05-09T12:33:54;100781.25;;;23.12;49.83
3780;BME280;1905;52.482;9.802;2023-05-09T12:36:22;100787.19;;;23.16;49.26
3780;BME280;1905;52.482;9.802;2023-05-09T12:38:53;100776.41;;;23.25;49.79
3780;BME280;1905;52.482;9.802;2023-05-09T12:41:22;100783.19;;;23.29;49.00
3780;BME280;1905;52.482;9.802;2023-05-09T12:43:53;100770.97;;;23.35;48.65
3780;BME280;1905;52.482;9.802;2023-05-09T12:46:21;100763.88;;;23.43;48.89
3780;BME280;1905;52.482;9.802;2023-05-09T12:48:48;100761.47;;;23.50;49.19
3780;BME280;1905;52.482;9.802;2023-05-09T12:51:17;100755.88;;;23.61;49.71
3780;BME280;1905;52.482;9.802;2023-05-09T12:53:46;100759.25;;;23.73;49.80
3780;BME280;1905;52.482;9.802;2023-05-09T12:56:16;100748.97;;;23.76;49.89
3780;BME280;1905;52.482;9.802;2023-05-09T12:58:49;100749.28;;;23.73;48.18
3780;BME280;1905;52.482;9.802;2023-05-09T13:01:17;100738.97;;;23.86;48.91
3780;BME280;1905;52.482;9.802;2023-05-09T13:03:50;100745.09;;;23.88;49.29
3780;BME280;1905;52.482;9.802;2023-05-09T13:06:17;100740.88;;;24.03;49.56
3780;BME280;1905;52.482;9.802;2023-05-09T13:08:56;100740.88;;;24.13;49.73
3780;BME280;1905;52.482;9.802;2023-05-09T13:11:24;100736.53;;;24.20;49.88
3780;BME280;1905;52.482;9.802;2023-05-09T13:13:54;100738.47;;;24.27;49.56
3780;BME280;1905;52.482;9.802;2023-05-09T13:16:22;100726.00;;;24.26;48.99
3780;BME280;1905;52.482;9.802;2023-05-09T13:18:49;100722.03;;;24.39;49.50
3780;BME280;1905;52.482;9.802;2023-05-09T13:21:17;100722.41;;;24.44;46.96
3780;BME280;1905;52.482;9.802;2023-05-09T13:23:45;100714.25;;;24.36;47.26